createdAt,value
2017-02-08T00:01:00.472Z,0.78
2017-02-08T00:02:11.871Z,0.81
2017-02-08T00:03:23.281Z,0.72
2017-02-08T00:04:34.686Z,0.72
2017-02-08T00:05:46.100Z,0.72
2017-02-08T00:06:57.549Z,0.76
2017-02-08T00:08:08.954Z,0.76
2017-02-08T00:09:20.364Z,0.67
2017-02-08T00:10:31.758Z,0.72
2017-02-08T00:11:43.168Z,0.72
2017-02-08T00:12:54.624Z,0.71
2017-02-08T00:14:06.056Z,0.72
2017-02-08T00:15:17.454Z,0.76
2017-02-08T00:16:28.854Z,0.78
2017-02-08T00:17:40.256Z,0.76
2017-02-08T00:18:51.703Z,0.78
2017-02-08T00:20:03.108Z,0.81
2017-02-08T00:21:14.503Z,0.82
2017-02-08T00:22:25.900Z,0.82
2017-02-08T00:23:37.503Z,0.89
2017-02-08T00:24:49.169Z,0.84
2017-02-08T00:26:00.571Z,0.84
2017-02-08T00:27:11.970Z,0.85
2017-02-08T00:28:23.365Z,0.9
2017-02-08T00:29:34.772Z,0.85
2017-02-08T00:30:46.221Z,0.89
2017-02-08T00:31:57.623Z,0.74
2017-02-08T00:33:09.436Z,0.9
2017-02-08T00:34:21.039Z,0.85
2017-02-08T00:35:32.457Z,0.86
2017-02-08T00:36:43.907Z,0.85
2017-02-08T00:37:55.308Z,0.85
2017-02-08T00:39:06.710Z,0.85
2017-02-08T00:40:18.115Z,0.79
2017-02-08T00:41:29.550Z,0.82
2017-02-08T00:42:40.997Z,0.89
2017-02-08T00:43:52.409Z,0.85
2017-02-08T00:45:03.806Z,0.81
2017-02-08T00:46:15.409Z,0.75
2017-02-08T00:47:26.809Z,0.75
2017-02-08T00:48:38.255Z,0.84
2017-02-08T00:49:50.055Z,0.89
2017-02-08T00:51:01.458Z,0.89
2017-02-08T00:52:12.860Z,0.75
2017-02-08T00:53:24.266Z,0.84
2017-02-08T00:54:35.712Z,0.85
2017-02-08T00:55:47.516Z,0.85
2017-02-08T00:56:58.919Z,0.76
2017-02-08T00:58:10.313Z,0.78
2017-02-08T00:59:21.916Z,0.76
2017-02-08T01:00:33.563Z,0.82
2017-02-08T01:01:44.966Z,0.85
2017-02-08T01:02:56.373Z,0.9
2017-02-08T01:04:07.771Z,0.81
2017-02-08T01:05:19.373Z,0.86
2017-02-08T01:06:30.835Z,0.92
2017-02-08T01:07:42.239Z,0.86
2017-02-08T01:08:53.844Z,0.93
2017-02-08T01:10:05.242Z,0.9
2017-02-08T01:11:16.644Z,0.92
2017-02-08T01:12:28.099Z,0.93
2017-02-08T01:13:39.504Z,0.94
2017-02-08T01:14:50.906Z,0.89
2017-02-08T01:16:02.299Z,0.85
2017-02-08T01:17:13.703Z,0.92
2017-02-08T01:18:25.155Z,0.79
2017-02-08T01:19:36.763Z,0.9
2017-02-08T01:20:48.164Z,0.84
2017-02-08T01:21:59.569Z,0.81
2017-02-08T01:23:11.212Z,0.9
2017-02-08T01:24:22.656Z,0.92
2017-02-08T01:25:34.051Z,0.92
2017-02-08T01:26:45.460Z,0.92
2017-02-08T01:27:56.870Z,0.89
2017-02-08T01:29:08.267Z,0.9
2017-02-08T01:30:19.915Z,0.89
2017-02-08T01:31:31.319Z,0.92
2017-02-08T01:32:42.722Z,0.86
2017-02-08T01:33:54.122Z,0.97
2017-02-08T01:35:05.520Z,0.97
2017-02-08T01:36:16.970Z,0.92
2017-02-08T01:37:28.374Z,0.93
2017-02-08T01:38:39.774Z,0.9
2017-02-08T01:39:51.169Z,0.93
2017-02-08T01:41:02.578Z,0.93
2017-02-08T01:42:14.028Z,0.94
2017-02-08T01:43:25.429Z,0.96
2017-02-08T01:44:36.840Z,0.96
2017-02-08T01:45:48.442Z,0.94
2017-02-08T01:46:59.843Z,0.81
2017-02-08T01:48:11.295Z,0.93
2017-02-08T01:49:22.684Z,0.84
2017-02-08T01:50:34.084Z,0.89
2017-02-08T01:51:45.486Z,0.81
2017-02-08T01:52:56.890Z,0.89
2017-02-08T01:54:08.340Z,0.89
2017-02-08T01:55:19.739Z,0.86
2017-02-08T01:56:31.143Z,0.78
2017-02-08T01:57:42.743Z,0.84
2017-02-08T01:58:54.346Z,0.89
2017-02-08T02:00:05.809Z,0.9
2017-02-08T02:01:17.415Z,0.82
2017-02-08T02:02:28.819Z,0.89
2017-02-08T02:03:40.222Z,0.78
2017-02-08T02:04:51.623Z,0.84
2017-02-08T02:06:03.084Z,0.78
2017-02-08T02:07:14.486Z,0.9
2017-02-08T02:08:25.882Z,0.81
2017-02-08T02:09:37.296Z,0.81
2017-02-08T02:10:48.703Z,0.85
2017-02-08T02:12:00.154Z,0.84
2017-02-08T02:13:11.561Z,0.89
2017-02-08T02:14:22.962Z,0.78
2017-02-08T02:15:34.368Z,0.85
2017-02-08T02:16:45.779Z,0.85
2017-02-08T02:17:57.272Z,0.9
2017-02-08T02:19:08.673Z,0.92
2017-02-08T02:20:20.268Z,0.92
2017-02-08T02:21:31.662Z,0.93
2017-02-08T02:22:43.066Z,0.9
2017-02-08T02:23:54.727Z,0.93
2017-02-08T02:25:06.128Z,0.94
2017-02-08T02:26:17.525Z,0.93
2017-02-08T02:27:28.926Z,0.97
2017-02-08T02:28:40.318Z,0.89
2017-02-08T02:29:51.772Z,0.94
2017-02-08T02:31:03.174Z,0.94
2017-02-08T02:32:14.588Z,0.84
2017-02-08T02:33:26.198Z,0.89
2017-02-08T02:34:37.603Z,0.9
2017-02-08T02:35:49.056Z,0.9
2017-02-08T02:37:00.454Z,0.9
2017-02-08T02:38:11.857Z,0.84
2017-02-08T02:39:23.261Z,0.9
2017-02-08T02:40:34.863Z,0.89
2017-02-08T02:41:46.311Z,0.92
2017-02-08T02:42:57.909Z,0.96
2017-02-08T02:44:09.317Z,0.9
2017-02-08T02:45:20.758Z,0.85
2017-02-08T02:46:32.372Z,0.93
2017-02-08T02:47:43.811Z,0.9
2017-02-08T02:48:55.216Z,0.94
2017-02-08T02:50:06.617Z,0.93
2017-02-08T02:51:18.214Z,0.96
2017-02-08T02:52:29.622Z,0.97
2017-02-08T02:53:41.074Z,0.94
2017-02-08T02:54:52.476Z,0.97
2017-02-08T02:56:03.878Z,0.96
2017-02-08T02:57:15.272Z,0.93
2017-02-08T02:58:26.679Z,0.93
2017-02-08T02:59:38.138Z,0.92
2017-02-08T03:00:49.539Z,0.76
2017-02-08T03:02:00.947Z,0.85
2017-02-08T03:03:12.350Z,0.89
2017-02-08T03:04:24.003Z,0.82
2017-02-08T03:05:35.450Z,0.82
2017-02-08T03:06:46.853Z,0.81
2017-02-08T03:07:58.262Z,0.85
2017-02-08T03:09:09.659Z,0.89
2017-02-08T03:10:21.060Z,0.84
2017-02-08T03:11:32.498Z,0.9
2017-02-08T03:12:43.908Z,0.93
2017-02-08T03:13:55.316Z,0.85
2017-02-08T03:15:06.723Z,0.93
2017-02-08T03:16:18.116Z,0.85
2017-02-08T03:17:29.565Z,0.9
2017-02-08T03:18:40.974Z,0.94
2017-02-08T03:19:52.375Z,0.85
2017-02-08T03:21:03.771Z,0.9
2017-02-08T03:22:15.174Z,0.96
2017-02-08T03:23:26.831Z,0.89
2017-02-08T03:24:38.266Z,0.89
2017-02-08T03:25:49.868Z,0.85
2017-02-08T03:27:01.271Z,0.82
2017-02-08T03:28:12.668Z,0.89
2017-02-08T03:29:24.124Z,0.85
2017-02-08T03:30:35.521Z,0.74
2017-02-08T03:31:47.131Z,0.84
2017-02-08T03:32:58.535Z,0.82
2017-02-08T03:34:09.940Z,0.82
2017-02-08T03:35:21.395Z,0.82
2017-02-08T03:36:32.798Z,0.84
2017-02-08T03:37:44.189Z,0.89
2017-02-08T03:38:55.591Z,0.78
2017-02-08T03:40:06.998Z,0.74
2017-02-08T03:41:18.643Z,0.81
2017-02-08T03:42:30.047Z,0.79
2017-02-08T03:43:41.451Z,0.85
2017-02-08T03:44:52.861Z,0.86
2017-02-08T03:46:04.263Z,0.78
2017-02-08T03:47:15.925Z,0.78
2017-02-08T03:48:27.321Z,0.76
2017-02-08T03:49:38.730Z,0.79
2017-02-08T03:50:50.127Z,0.76
2017-02-08T03:52:01.731Z,0.76
2017-02-08T03:53:13.385Z,0.76
2017-02-08T03:54:24.787Z,0.82
2017-02-08T03:55:36.170Z,0.76
2017-02-08T03:56:47.569Z,0.82
2017-02-08T03:57:58.974Z,0.86
2017-02-08T03:59:10.384Z,0.82
2017-02-08T04:00:21.788Z,0.82
2017-02-08T04:01:33.191Z,0.76
2017-02-08T04:02:44.590Z,0.84
2017-02-08T04:03:56.044Z,0.79
2017-02-08T04:05:07.444Z,0.84
2017-02-08T04:06:18.848Z,0.86
2017-02-08T04:07:30.257Z,0.85
2017-02-08T04:08:41.665Z,0.82
2017-02-08T04:09:53.111Z,0.82
2017-02-08T04:11:04.515Z,0.86
2017-02-08T04:12:15.918Z,0.78
2017-02-08T04:13:27.522Z,0.84
2017-02-08T04:14:38.922Z,0.84
2017-02-08T04:15:50.576Z,0.79
2017-02-08T04:17:01.985Z,0.82
2017-02-08T04:18:13.391Z,0.85
2017-02-08T04:19:24.793Z,0.85
2017-02-08T04:20:36.201Z,0.81
2017-02-08T04:21:47.856Z,0.74
2017-02-08T04:22:59.265Z,0.85
2017-02-08T04:24:10.670Z,0.76
2017-02-08T04:25:22.082Z,0.85
2017-02-08T04:26:33.481Z,0.76
2017-02-08T04:27:44.936Z,0.85
2017-02-08T04:28:56.344Z,0.74
2017-02-08T04:30:07.748Z,0.89
2017-02-08T04:31:19.339Z,0.81
2017-02-08T04:32:30.751Z,0.85
2017-02-08T04:33:42.201Z,0.82
2017-02-08T04:34:53.604Z,0.84
2017-02-08T04:36:05.015Z,0.82
2017-02-08T04:37:16.420Z,0.82
2017-02-08T04:38:27.811Z,0.84
2017-02-08T04:39:39.265Z,0.89
2017-02-08T04:40:50.654Z,0.82
2017-02-08T04:42:02.055Z,0.79
2017-02-08T04:43:13.462Z,0.76
2017-02-08T04:44:24.868Z,0.89
2017-02-08T04:45:36.321Z,0.76
2017-02-08T04:46:47.723Z,0.86
2017-02-08T04:47:59.124Z,0.81
2017-02-08T04:49:10.522Z,0.81
2017-02-08T04:50:21.928Z,0.81
2017-02-08T04:51:33.374Z,0.85
2017-02-08T04:52:44.775Z,0.81
2017-02-08T04:53:56.172Z,0.82
2017-02-08T04:55:07.576Z,0.81
2017-02-08T04:56:18.973Z,0.86
2017-02-08T04:57:30.424Z,0.78
2017-02-08T04:58:41.827Z,0.9
2017-02-08T04:59:53.429Z,0.85
2017-02-08T05:01:04.829Z,0.84
2017-02-08T05:02:16.229Z,0.82
2017-02-08T05:03:27.682Z,0.81
2017-02-08T05:04:39.283Z,0.81
2017-02-08T05:05:50.696Z,0.92
2017-02-08T05:07:02.097Z,0.9
2017-02-08T05:08:13.500Z,0.81
2017-02-08T05:09:24.949Z,0.89
2017-02-08T05:10:36.351Z,0.86
2017-02-08T05:11:47.749Z,0.84
2017-02-08T05:12:59.148Z,0.82
2017-02-08T05:14:10.557Z,0.84
2017-02-08T05:15:22.004Z,0.84
2017-02-08T05:16:33.406Z,0.85
2017-02-08T05:17:45.006Z,0.82
2017-02-08T05:18:56.413Z,0.76
2017-02-08T05:20:07.809Z,0.84
2017-02-08T05:21:19.460Z,0.84
2017-02-08T05:22:30.859Z,0.82
2017-02-08T05:23:42.265Z,0.79
2017-02-08T05:24:53.674Z,0.78
2017-02-08T05:26:05.081Z,0.82
2017-02-08T05:27:16.529Z,0.84
2017-02-08T05:28:27.929Z,0.79
2017-02-08T05:29:39.536Z,0.74
2017-02-08T05:30:50.945Z,0.78
2017-02-08T05:32:02.550Z,0.79
2017-02-08T05:33:13.996Z,0.74
2017-02-08T05:34:25.424Z,0.84
2017-02-08T05:35:36.834Z,0.84
2017-02-08T05:36:48.243Z,0.75
2017-02-08T05:37:59.643Z,0.84
2017-02-08T05:39:11.097Z,0.82
2017-02-08T05:40:22.502Z,0.86
2017-02-08T05:41:33.903Z,0.76
2017-02-08T05:42:45.303Z,0.78
2017-02-08T05:43:56.700Z,0.84
2017-02-08T05:45:08.157Z,0.86
2017-02-08T05:46:19.795Z,0.85
2017-02-08T05:47:31.184Z,0.79
2017-02-08T05:48:42.583Z,0.76
2017-02-08T05:49:54.181Z,0.89
2017-02-08T05:51:05.647Z,0.76
2017-02-08T05:52:17.050Z,0.78
2017-02-08T05:53:28.449Z,0.75
2017-02-08T05:54:40.050Z,0.78
2017-02-08T05:55:51.447Z,0.76
2017-02-08T05:57:03.097Z,0.71
2017-02-08T05:58:14.498Z,0.76
2017-02-08T05:59:25.895Z,0.78
2017-02-08T06:00:37.501Z,0.75
2017-02-08T06:01:48.899Z,0.71
2017-02-08T06:03:00.351Z,0.79
2017-02-08T06:04:11.754Z,0.76
2017-02-08T06:05:23.157Z,0.75
2017-02-08T06:06:34.563Z,0.72
2017-02-08T06:07:45.969Z,0.69
2017-02-08T06:08:57.420Z,0.71
2017-02-08T06:10:08.825Z,0.71
2017-02-08T06:11:20.231Z,0.67
2017-02-08T06:12:31.642Z,0.74
2017-02-08T06:13:43.043Z,0.69
2017-02-08T06:14:54.696Z,0.76
2017-02-08T06:16:06.103Z,0.82
2017-02-08T06:17:17.507Z,0.79
2017-02-08T06:18:28.915Z,0.79
2017-02-08T06:19:40.519Z,0.74
2017-02-08T06:20:51.965Z,0.69
2017-02-08T06:22:03.563Z,0.76
2017-02-08T06:23:15.169Z,0.71
2017-02-08T06:24:26.575Z,0.76
2017-02-08T06:25:37.979Z,0.85
2017-02-08T06:26:49.437Z,0.84
2017-02-08T06:28:00.832Z,0.79
2017-02-08T06:29:12.238Z,0.89
2017-02-08T06:30:23.634Z,0.81
2017-02-08T06:31:40.179Z,0.69
2017-02-08T06:32:51.642Z,0.71
2017-02-08T06:34:03.032Z,0.67
2017-02-08T06:35:14.426Z,0.72
2017-02-08T06:36:26.037Z,0.69
2017-02-08T06:37:37.635Z,0.71
2017-02-08T06:38:49.080Z,0.72
2017-02-08T06:40:00.473Z,0.67
2017-02-08T06:41:11.876Z,0.66
2017-02-08T06:42:23.292Z,0.69
2017-02-08T06:43:34.692Z,0.66
2017-02-08T06:44:46.139Z,0.74
2017-02-08T06:45:57.547Z,0.79
2017-02-08T06:47:09.146Z,0.74
2017-02-08T06:48:20.551Z,0.74
2017-02-08T06:49:31.948Z,0.71
2017-02-08T06:50:43.602Z,0.76
2017-02-08T06:51:55.013Z,0.67
2017-02-08T06:53:06.618Z,0.72
2017-02-08T06:54:18.218Z,0.75
2017-02-08T06:55:29.619Z,0.76
2017-02-08T06:56:41.270Z,0.79
2017-02-08T06:57:52.676Z,0.86
2017-02-08T06:59:04.077Z,0.75
2017-02-08T07:00:15.683Z,0.79
2017-02-08T07:01:27.289Z,0.79
2017-02-08T07:02:38.936Z,0.78
2017-02-08T07:03:50.345Z,0.72
2017-02-08T07:05:01.749Z,0.71
2017-02-08T07:06:13.145Z,0.76
2017-02-08T07:07:24.548Z,0.71
2017-02-08T07:08:36.159Z,0.78
2017-02-08T07:09:47.562Z,0.72
2017-02-08T07:10:58.967Z,0.81
2017-02-08T07:12:10.573Z,0.74
2017-02-08T07:13:22.233Z,0.76
2017-02-08T07:14:33.635Z,0.75
2017-02-08T07:15:45.046Z,0.78
2017-02-08T07:16:56.457Z,0.74
2017-02-08T07:18:07.872Z,0.89
2017-02-08T07:19:19.729Z,0.82
2017-02-08T07:20:31.130Z,0.78
2017-02-08T07:21:42.536Z,0.79
2017-02-08T07:22:53.935Z,0.86
2017-02-08T07:24:05.338Z,0.89
2017-02-08T07:25:16.788Z,0.76
2017-02-08T07:26:28.190Z,0.81
2017-02-08T07:27:39.799Z,0.89
2017-02-08T07:28:51.200Z,0.89
2017-02-08T07:30:02.611Z,0.85
2017-02-08T07:31:14.058Z,0.86
2017-02-08T07:32:25.460Z,0.84
2017-02-08T07:33:37.062Z,0.86
2017-02-08T07:34:48.475Z,0.93
2017-02-08T07:35:59.886Z,0.94
2017-02-08T07:37:11.540Z,0.9
2017-02-08T07:38:23.145Z,0.94
2017-02-08T07:39:34.552Z,0.94
2017-02-08T07:40:45.953Z,0.99
2017-02-08T07:41:57.358Z,0.97
2017-02-08T07:43:08.819Z,0.9
2017-02-08T07:44:20.229Z,0.94
2017-02-08T07:45:31.634Z,0.94
2017-02-08T07:46:43.238Z,0.96
2017-02-08T07:47:54.642Z,0.96
2017-02-08T07:49:06.296Z,0.94
2017-02-08T07:50:17.702Z,0.86
2017-02-08T07:51:29.102Z,0.9
2017-02-08T07:52:40.504Z,0.89
2017-02-08T07:53:51.908Z,0.81
2017-02-08T07:55:03.368Z,0.89
2017-02-08T07:56:14.774Z,0.82
2017-02-08T07:57:26.416Z,0.89
2017-02-08T07:58:38.022Z,0.93
2017-02-08T07:59:49.414Z,0.94
2017-02-08T08:01:01.072Z,0.94
2017-02-08T08:02:12.472Z,0.92
2017-02-08T08:03:23.866Z,0.92
2017-02-08T08:04:35.473Z,0.99
2017-02-08T08:05:46.876Z,0.96
2017-02-08T08:06:58.340Z,0.99
2017-02-08T08:08:09.742Z,1.08
2017-02-08T08:09:21.146Z,1.04
2017-02-08T08:10:32.541Z,1.11
2017-02-08T08:11:43.945Z,1.03
2017-02-08T08:12:55.595Z,1.08
2017-02-08T08:14:06.998Z,1.14
2017-02-08T08:15:18.408Z,1.18
2017-02-08T08:16:29.813Z,1.1
2017-02-08T08:17:41.211Z,1.08
2017-02-08T08:18:52.667Z,1.1
2017-02-08T08:20:04.064Z,1.11
2017-02-08T08:21:15.656Z,1.04
2017-02-08T08:22:27.052Z,1.08
2017-02-08T08:23:38.454Z,1.04
2017-02-08T08:24:49.919Z,1.11
2017-02-08T08:26:01.319Z,1
2017-02-08T08:27:12.719Z,1.07
2017-02-08T08:28:24.112Z,1.11
2017-02-08T08:29:35.511Z,1.07
2017-02-08T08:30:46.963Z,1.24
2017-02-08T08:31:58.371Z,1.22
2017-02-08T08:33:09.779Z,1.18
2017-02-08T08:34:21.184Z,1.15
2017-02-08T08:35:32.597Z,1.12
2017-02-08T08:36:44.247Z,1.17
2017-02-08T08:37:55.649Z,1.12
2017-02-08T08:39:07.054Z,1.14
2017-02-08T08:40:18.457Z,1.14
2017-02-08T08:41:29.859Z,1.2
2017-02-08T08:42:41.306Z,1.22
2017-02-08T08:43:52.740Z,1.18
2017-02-08T08:45:04.337Z,1.11
2017-02-08T08:46:16.149Z,1.29
2017-02-08T08:47:27.752Z,1.21
2017-02-08T08:48:39.408Z,1.2
2017-02-08T08:49:50.810Z,1.24
2017-02-08T08:51:02.213Z,1.24
2017-02-08T08:52:13.611Z,1.2
2017-02-08T08:53:25.010Z,1.21
2017-02-08T08:54:36.463Z,1.26
2017-02-08T08:55:47.903Z,1.28
2017-02-08T08:56:59.502Z,1.32
2017-02-08T08:58:11.114Z,1.33
2017-02-08T08:59:22.522Z,1.32
2017-02-08T09:00:33.975Z,1.32
2017-02-08T09:01:45.379Z,1.21
2017-02-08T09:02:56.783Z,1.29
2017-02-08T09:04:08.187Z,1.29
2017-02-08T09:05:19.587Z,1.38
2017-02-08T09:06:31.041Z,1.35
2017-02-08T09:07:42.451Z,1.33
2017-02-08T09:08:53.860Z,1.22
2017-02-08T09:10:05.265Z,1.32
2017-02-08T09:11:16.673Z,1.29
2017-02-08T09:12:28.128Z,1.33
2017-02-08T09:13:39.532Z,1.35
2017-02-08T09:14:50.935Z,1.32
2017-02-08T09:16:02.344Z,1.3
2017-02-08T09:17:13.775Z,1.33
2017-02-08T09:18:25.229Z,1.35
2017-02-08T09:19:36.835Z,1.28
2017-02-08T09:20:48.233Z,1.26
2017-02-08T09:21:59.641Z,1.35
2017-02-08T09:23:11.042Z,1.32
2017-02-08T09:24:22.499Z,1.33
2017-02-08T09:25:33.898Z,1.33
2017-02-08T09:26:45.303Z,1.44
2017-02-08T09:27:56.701Z,1.4
2017-02-08T09:29:08.106Z,1.42
2017-02-08T09:30:19.547Z,1.44
2017-02-08T09:31:31.142Z,1.36
2017-02-08T09:32:42.748Z,1.29
2017-02-08T09:33:54.145Z,1.36
2017-02-08T09:35:05.743Z,1.4
2017-02-08T09:36:17.199Z,1.42
2017-02-08T09:37:28.808Z,1.42
2017-02-08T09:38:40.211Z,1.39
2017-02-08T09:39:51.809Z,1.46
2017-02-08T09:41:03.216Z,1.48
2017-02-08T09:42:14.674Z,1.54
2017-02-08T09:43:26.083Z,1.48
2017-02-08T09:44:37.489Z,1.6
2017-02-08T09:45:48.890Z,1.61
2017-02-08T09:47:00.296Z,1.57
2017-02-08T09:48:11.748Z,1.53
2017-02-08T09:49:23.152Z,1.58
2017-02-08T09:50:34.558Z,1.56
2017-02-08T09:51:45.960Z,1.6
2017-02-08T09:52:57.363Z,1.65
2017-02-08T09:54:09.014Z,1.53
2017-02-08T09:55:20.613Z,1.53
2017-02-08T09:56:32.216Z,1.57
2017-02-08T09:57:43.618Z,1.56
2017-02-08T09:58:55.028Z,1.53
2017-02-08T10:00:06.680Z,1.64
2017-02-08T10:01:18.089Z,1.58
2017-02-08T10:02:29.494Z,1.61
2017-02-08T10:03:41.102Z,1.64
2017-02-08T10:04:52.506Z,1.66
2017-02-08T10:06:03.962Z,1.65
2017-02-08T10:07:15.564Z,1.69
2017-02-08T10:08:26.966Z,1.64
2017-02-08T10:09:38.384Z,1.6
2017-02-08T10:10:49.786Z,1.61
2017-02-08T10:12:01.480Z,1.65
2017-02-08T10:13:12.886Z,1.56
2017-02-08T10:14:24.288Z,1.65
2017-02-08T10:15:35.696Z,1.56
2017-02-08T10:16:47.107Z,1.61
2017-02-08T10:17:58.564Z,1.78
2017-02-08T10:19:09.972Z,1.78
2017-02-08T10:20:21.369Z,1.58
2017-02-08T10:21:32.772Z,1.69
2017-02-08T10:22:44.180Z,1.76
2017-02-08T10:23:55.624Z,1.71
2017-02-08T10:25:07.031Z,1.75
2017-02-08T10:26:18.437Z,1.82
2017-02-08T10:27:29.845Z,1.98
2017-02-08T10:28:41.253Z,1.86
2017-02-08T10:29:52.716Z,1.84
2017-02-08T10:31:04.123Z,1.92
2017-02-08T10:32:15.533Z,1.86
2017-02-08T10:33:26.936Z,1.98
2017-02-08T10:34:38.345Z,2.01
2017-02-08T10:35:50.006Z,2.09
2017-02-08T10:37:01.416Z,2.09
2017-02-08T10:38:13.019Z,2.09
2017-02-08T10:39:24.414Z,2.05
2017-02-08T10:40:35.820Z,2.08
2017-02-08T10:41:47.285Z,2.02
2017-02-08T10:42:58.684Z,2.08
2017-02-08T10:44:10.094Z,2.05
2017-02-08T10:45:21.693Z,2.08
2017-02-08T10:46:33.101Z,2.08
2017-02-08T10:47:44.555Z,1.97
2017-02-08T10:48:56.360Z,1.98
2017-02-08T10:50:07.983Z,2.12
2017-02-08T10:51:19.390Z,2.06
2017-02-08T10:52:30.787Z,2.16
2017-02-08T10:53:42.240Z,2.22
2017-02-08T10:54:53.645Z,2.2
2017-02-08T10:56:05.054Z,2.33
2017-02-08T10:57:16.450Z,2.45
2017-02-08T10:58:27.855Z,2.41
2017-02-08T10:59:39.305Z,2.49
2017-02-08T11:00:50.708Z,2.41
2017-02-08T11:02:02.109Z,2.23
2017-02-08T11:03:13.511Z,2.18
2017-02-08T11:04:25.117Z,2.18
2017-02-08T11:05:36.565Z,2.31
2017-02-08T11:06:47.971Z,2.22
2017-02-08T11:07:59.368Z,2.3
2017-02-08T11:09:10.774Z,2.34
2017-02-08T11:10:22.413Z,2.49
2017-02-08T11:11:33.868Z,2.48
2017-02-08T11:12:45.280Z,2.58
2017-02-08T11:13:56.688Z,2.69
2017-02-08T11:15:08.096Z,2.65
2017-02-08T11:16:19.501Z,2.63
2017-02-08T11:17:30.958Z,2.58
2017-02-08T11:18:42.365Z,2.65
2017-02-08T11:19:53.974Z,2.66
2017-02-08T11:21:05.390Z,2.8
2017-02-08T11:22:16.803Z,2.76
2017-02-08T11:23:28.247Z,2.81
2017-02-08T11:24:39.848Z,2.93
2017-02-08T11:25:51.256Z,3.02
2017-02-08T11:27:02.653Z,3.02
2017-02-08T11:28:14.259Z,3.11
2017-02-08T11:29:25.715Z,3.16
2017-02-08T11:30:37.113Z,3.21
2017-02-08T11:31:48.519Z,3.37
2017-02-08T11:32:59.926Z,3.57
2017-02-08T11:34:11.338Z,3.58
2017-02-08T11:35:22.795Z,3.6
2017-02-08T11:36:34.202Z,3.72
2017-02-08T11:37:45.615Z,3.81
2017-02-08T11:38:57.021Z,4.03
2017-02-08T11:40:08.424Z,4.03
2017-02-08T11:41:19.877Z,4.12
2017-02-08T11:42:31.290Z,4
2017-02-08T11:43:42.705Z,3.85
2017-02-08T11:44:54.115Z,3.78
2017-02-08T11:46:05.721Z,3.69
2017-02-08T11:47:17.383Z,3.6
2017-02-08T11:48:28.788Z,3.49
2017-02-08T11:49:40.404Z,3.4
2017-02-08T11:50:52.014Z,3.35
2017-02-08T11:52:03.621Z,3.4
2017-02-08T11:53:15.285Z,3.49
2017-02-08T11:54:26.691Z,3.45
2017-02-08T11:55:38.107Z,3.32
2017-02-08T11:56:49.512Z,3.32
2017-02-08T11:58:01.125Z,3.48
2017-02-08T11:59:12.623Z,3.56
2017-02-08T12:00:24.043Z,3.54
2017-02-08T12:01:35.652Z,3.58
2017-02-08T12:02:47.452Z,3.6
2017-02-08T12:03:58.862Z,3.46
2017-02-08T12:05:10.318Z,3.54
2017-02-08T12:06:21.716Z,3.53
2017-02-08T12:07:33.126Z,3.53
2017-02-08T12:08:44.534Z,3.53
2017-02-08T12:09:55.928Z,3.6
2017-02-08T12:11:07.590Z,3.67
2017-02-08T12:12:18.988Z,3.61
2017-02-08T12:13:30.397Z,3.58
2017-02-08T12:14:41.800Z,3.53
2017-02-08T12:15:53.203Z,3.53
2017-02-08T12:17:04.658Z,3.53
2017-02-08T12:18:16.265Z,3.43
2017-02-08T12:19:27.673Z,3.29
2017-02-08T12:20:39.084Z,3.21
2017-02-08T12:21:50.693Z,3.24
2017-02-08T12:23:02.148Z,3.13
2017-02-08T12:24:13.965Z,3.13
2017-02-08T12:25:25.363Z,3.02
2017-02-08T12:26:36.770Z,3.03
2017-02-08T12:27:48.173Z,2.96
2017-02-08T12:28:59.634Z,2.95
2017-02-08T12:30:11.234Z,2.99
2017-02-08T12:31:22.636Z,3.13
2017-02-08T12:32:34.037Z,3.19
2017-02-08T12:33:45.446Z,3.17
2017-02-08T12:34:56.906Z,3.08
2017-02-08T12:36:08.319Z,3.06
2017-02-08T12:37:19.729Z,3.14
2017-02-08T12:38:31.125Z,3.08
2017-02-08T12:39:42.527Z,3.01
2017-02-08T12:40:54.037Z,3.09
2017-02-08T12:42:05.652Z,3.13
2017-02-08T12:43:17.058Z,3.13
2017-02-08T12:44:28.470Z,2.96
2017-02-08T12:45:40.092Z,3.01
2017-02-08T12:46:51.550Z,2.9
2017-02-08T12:48:02.952Z,2.78
2017-02-08T12:49:14.362Z,2.76
2017-02-08T12:50:25.775Z,2.66
2017-02-08T12:51:37.179Z,2.69
2017-02-08T12:52:48.832Z,2.72
2017-02-08T12:54:00.241Z,2.66
2017-02-08T12:55:11.844Z,2.6
2017-02-08T12:56:23.243Z,2.67
2017-02-08T12:57:34.650Z,2.7
2017-02-08T12:58:46.304Z,2.73
2017-02-08T12:59:57.706Z,2.8
2017-02-08T13:01:09.316Z,2.55
2017-02-08T13:02:20.926Z,2.51
2017-02-08T13:03:32.330Z,2.58
2017-02-08T13:04:43.983Z,2.51
2017-02-08T13:05:55.391Z,2.49
2017-02-08T13:07:06.806Z,2.47
2017-02-08T13:08:18.212Z,2.52
2017-02-08T13:09:29.622Z,2.58
2017-02-08T13:10:41.072Z,2.65
2017-02-08T13:11:52.487Z,2.62
2017-02-08T13:13:03.889Z,2.58
2017-02-08T13:14:15.296Z,2.55
2017-02-08T13:15:26.908Z,2.54
2017-02-08T13:16:38.367Z,2.54
2017-02-08T13:17:49.765Z,2.54
2017-02-08T13:19:01.190Z,2.52
2017-02-08T13:20:12.594Z,2.51
2017-02-08T13:21:24.001Z,2.6
2017-02-08T13:22:35.464Z,2.58
2017-02-08T13:23:46.868Z,2.54
2017-02-08T13:24:58.271Z,2.58
2017-02-08T13:26:09.671Z,2.58
2017-02-08T13:27:21.080Z,2.58
2017-02-08T13:28:32.539Z,2.49
2017-02-08T13:29:43.939Z,2.45
2017-02-08T13:30:55.357Z,2.44
2017-02-08T13:32:06.767Z,2.41
2017-02-08T13:33:18.380Z,2.45
2017-02-08T13:34:29.837Z,2.47
2017-02-08T13:35:41.249Z,2.47
2017-02-08T13:36:52.647Z,2.49
2017-02-08T13:38:04.255Z,2.48
2017-02-08T13:39:15.666Z,2.44
2017-02-08T13:40:27.168Z,2.3
2017-02-08T13:41:38.569Z,2.27
2017-02-08T13:42:49.983Z,2.34
2017-02-08T13:44:01.391Z,2.42
2017-02-08T13:45:12.799Z,2.44
2017-02-08T13:46:24.262Z,2.34
2017-02-08T13:47:35.658Z,2.31
2017-02-08T13:48:47.063Z,2.18
2017-02-08T13:49:58.473Z,2.24
2017-02-08T13:51:10.080Z,2.22
2017-02-08T13:52:21.536Z,2.16
2017-02-08T13:53:32.941Z,2.12
2017-02-08T13:54:44.341Z,2.08
2017-02-08T13:55:55.756Z,2.2
2017-02-08T13:57:07.175Z,2.18
2017-02-08T13:58:18.626Z,2.2
2017-02-08T13:59:30.033Z,2.31
2017-02-08T14:00:41.477Z,2.42
2017-02-08T14:01:52.878Z,2.41
2017-02-08T14:03:04.281Z,2.42
2017-02-08T14:04:15.938Z,2.3
2017-02-08T14:05:27.352Z,2.34
2017-02-08T14:06:38.965Z,2.31
2017-02-08T14:07:50.376Z,2.27
2017-02-08T14:09:01.787Z,2.3
2017-02-08T14:10:13.242Z,2.3
2017-02-08T14:11:24.850Z,2.3
2017-02-08T14:12:36.260Z,2.24
2017-02-08T14:13:47.676Z,2.2
2017-02-08T14:14:59.288Z,2.29
2017-02-08T14:16:10.738Z,2.2
2017-02-08T14:17:22.145Z,2.15
2017-02-08T14:18:33.551Z,2.15
2017-02-08T14:19:45.165Z,2.18
2017-02-08T14:20:56.561Z,2.16
2017-02-08T14:22:08.212Z,2.18
2017-02-08T14:23:19.618Z,2.13
2017-02-08T14:24:31.018Z,2.09
2017-02-08T14:25:42.428Z,1.98
2017-02-08T14:26:53.835Z,1.98
2017-02-08T14:28:05.297Z,1.94
2017-02-08T14:29:16.704Z,1.92
2017-02-08T14:30:28.113Z,1.84
2017-02-08T14:31:39.723Z,1.9
2017-02-08T14:34:50.802Z,1.76
2017-02-08T14:38:02.045Z,1.71
2017-02-08T14:41:51.598Z,1.68
2017-02-08T14:43:03.206Z,1.72
2017-02-08T14:44:14.812Z,1.84
2017-02-08T14:45:26.220Z,1.76
2017-02-08T14:46:37.731Z,1.79
2017-02-08T14:47:49.132Z,1.71
2017-02-08T14:49:00.538Z,1.69
2017-02-08T14:50:12.143Z,1.66
2017-02-08T14:51:23.543Z,1.65
2017-02-08T14:52:34.997Z,1.65
2017-02-08T14:53:46.600Z,1.69
2017-02-08T14:54:58.220Z,1.66
2017-02-08T14:56:09.616Z,1.71
2017-02-08T14:57:21.030Z,1.68
2017-02-08T14:58:32.484Z,1.56
2017-02-08T14:59:43.888Z,1.58
2017-02-08T15:00:55.287Z,1.51
2017-02-08T15:02:06.688Z,1.48
2017-02-08T15:03:18.100Z,1.48
2017-02-08T15:04:29.555Z,1.48
2017-02-08T15:05:40.975Z,1.48
2017-02-08T15:06:52.383Z,1.54
2017-02-08T15:08:03.776Z,1.58
2017-02-08T15:09:15.187Z,1.51
2017-02-08T15:10:26.644Z,1.56
2017-02-08T15:11:38.242Z,1.68
2017-02-08T15:12:49.649Z,1.66
2017-02-08T15:14:01.052Z,1.69
2017-02-08T15:15:12.457Z,1.66
2017-02-08T15:16:23.906Z,1.64
2017-02-08T15:17:35.310Z,1.58
2017-02-08T15:18:46.712Z,1.65
2017-02-08T15:19:58.136Z,1.56
2017-02-08T15:21:09.538Z,1.53
2017-02-08T15:22:21.199Z,1.51
2017-02-08T15:23:32.803Z,1.46
2017-02-08T15:24:44.210Z,1.51
2017-02-08T15:25:55.810Z,1.46
2017-02-08T15:27:07.220Z,1.48
2017-02-08T15:28:18.672Z,1.53
2017-02-08T15:29:30.083Z,1.46
2017-02-08T15:30:41.486Z,1.54
2017-02-08T15:31:52.884Z,1.33
2017-02-08T15:33:04.289Z,1.32
2017-02-08T15:34:15.746Z,1.21
2017-02-08T15:35:27.146Z,1.2
2017-02-08T15:36:38.755Z,1.15
2017-02-08T15:37:50.159Z,1.3
2017-02-08T15:39:01.551Z,1.29
2017-02-08T15:40:13.012Z,1.18
2017-02-08T15:41:24.618Z,1.12
2017-02-08T15:42:36.024Z,1.15
2017-02-08T15:43:47.429Z,1.18
2017-02-08T15:44:58.834Z,1.14
2017-02-08T15:46:10.293Z,1.21
2017-02-08T15:47:21.900Z,1.12
2017-02-08T15:48:33.303Z,1.18
2017-02-08T15:49:44.722Z,1.26
2017-02-08T15:50:56.328Z,1.17
2017-02-08T15:52:07.780Z,1.2
2017-02-08T15:53:19.389Z,1.2
2017-02-08T15:54:30.792Z,1.29
2017-02-08T15:55:42.195Z,1.14
2017-02-08T15:56:53.605Z,1.14
2017-02-08T15:58:05.052Z,1.04
2017-02-08T15:59:16.462Z,1.04
2017-02-08T16:00:27.870Z,1.17